Time;durP1;ratioP1;P1;durP2;ratioP2;P2;SDS_P1;SDS_P2;PMS_P1;PMS_P2;Temp;Humidity;BMP_temperature;BMP_pressure;BME280_temperature;BME280_humidity;BME280_pressure;Samples;Min_cycle;Max_cycle;Signal;HPM_P1;HPM_P2
2022/03/31 00:07:54;;;;;;;0.20;0.00;;;12.00;99.90;;;;;;25409498;23;20191;-62
2022/03/31 00:18:00;;;;;;;0.73;0.73;;;11.90;99.90;;;;;;25384500;23;20202;-63
2022/03/31 00:28:04;;;;;;;0.20;0.00;;;11.90;99.90;;;;;;25408473;23;20207;-63
2022/03/31 00:38:11;;;;;;;0.20;0.07;;;12.00;99.90;;;;;;25383414;23;20337;-63
2022/03/31 00:48:16;;;;;;;0.20;0.10;;;11.90;99.90;;;;;;25407559;23;20222;-64
2022/03/31 00:58:22;;;;;;;0.20;0.10;;;11.90;99.90;;;;;;25383691;23;20175;-63
2022/03/31 01:08:26;;;;;;;0.20;0.10;;;11.80;99.90;;;;;;25381959;23;20222;-65
2022/03/31 01:18:31;;;;;;;0.20;0.10;;;12.00;99.90;;;;;;25384335;23;20211;-63
2022/03/31 01:28:40;;;;;;;0.20;0.00;;;12.00;99.90;;;;;;25380146;23;20418;-63
2022/03/31 01:38:44;;;;;;;0.20;0.00;;;12.20;99.90;;;;;;25401337;23;20183;-62
2022/03/31 01:48:51;;;;;;;0.20;0.10;;;12.20;99.90;;;;;;25403058;23;20223;-63
2022/03/31 01:58:54;;;;;;;0.20;0.10;;;12.30;99.90;;;;;;25406777;23;20178;-62
2022/03/31 02:09:00;;;;;;;0.20;0.10;;;12.20;99.90;;;;;;25407861;23;20222;-62
2022/03/31 02:19:03;;;;;;;0.20;0.00;;;12.20;99.90;;;;;;25378952;23;20211;-63
2022/03/31 02:29:09;;;;;;;0.20;0.10;;;12.00;99.90;;;;;;25405470;23;20218;-63
2022/03/31 02:39:13;;;;;;;0.20;0.10;;;11.90;99.90;;;;;;25406161;23;20218;-67
2022/03/31 02:49:19;;;;;;;0.20;0.10;;;11.90;99.90;;;;;;25404910;23;20211;-68
2022/03/31 02:59:23;;;;;;;0.20;0.10;;;11.80;99.90;;;;;;25407787;23;20160;-76
2022/03/31 03:09:28;;;;;;;0.20;0.10;;;12.00;99.90;;;;;;25405117;23;20192;-76
2022/03/31 03:19:32;;;;;;;0.20;0.10;;;12.00;99.90;;;;;;25405684;23;20207;-76
2022/03/31 03:29:45;;;;;;;0.20;0.10;;;11.80;99.90;;;;;;25411813;23;20176;-77
2022/03/31 03:39:48;;;;;;;0.20;0.00;;;11.70;99.90;;;;;;25440391;23;20166;-76
2022/03/31 03:49:53;;;;;;;0.20;0.10;;;11.90;99.90;;;;;;25387893;23;20227;-77
2022/03/31 03:59:57;;;;;;;0.20;0.10;;;11.70;99.90;;;;;;25411045;23;20172;-76
2022/03/31 04:10:02;;;;;;;0.20;0.00;;;11.80;99.90;;;;;;25411651;23;20176;-67
2022/03/31 04:20:07;;;;;;;0.20;0.10;;;11.70;99.90;;;;;;25409113;23;20191;-69
2022/03/31 04:30:17;;;;;;;0.20;0.10;;;11.80;99.90;;;;;;25408157;23;20380;-69
2022/03/31 04:40:22;;;;;;;0.20;0.00;;;11.80;99.90;;;;;;25403802;23;20166;-68
2022/03/31 04:50:27;;;;;;;0.20;0.10;;;11.60;99.90;;;;;;25382567;23;20432;-68
2022/03/31 05:00:31;;;;;;;0.20;0.03;;;11.70;99.90;;;;;;25410035;23;20192;-76
2022/03/31 05:10:36;;;;;;;0.20;0.10;;;11.80;99.90;;;;;;25431811;23;20168;-78
2022/03/31 05:20:42;;;;;;;0.20;0.10;;;11.80;99.90;;;;;;25391135;23;20196;-69
2022/03/31 05:30:47;;;;;;;0.20;0.10;;;12.00;99.90;;;;;;25380508;23;20168;-69
2022/03/31 05:40:51;;;;;;;0.20;0.10;;;11.80;99.90;;;;;;25407099;23;20582;-78
2022/03/31 05:50:56;;;;;;;0.20;0.10;;;11.80;99.90;;;;;;25400930;23;20259;-77
2022/03/31 06:01:00;;;;;;;0.20;0.10;;;12.00;99.90;;;;;;25373253;23;20395;-75
2022/03/31 06:11:06;;;;;;;0.20;0.10;;;12.00;99.90;;;;;;25394733;23;20172;-76
2022/03/31 06:21:10;;;;;;;0.30;0.30;;;12.10;99.90;;;;;;25378781;23;20237;-77
2022/03/31 06:31:15;;;;;;;0.20;0.10;;;12.20;99.90;;;;;;25406336;23;20179;-77
2022/03/31 06:41:19;;;;;;;0.20;0.10;;;12.30;99.90;;;;;;25400547;23;20187;-75
2022/03/31 06:51:25;;;;;;;0.20;0.10;;;12.30;99.90;;;;;;25400117;23;20206;-75
2022/03/31 07:01:29;;;;;;;0.20;0.10;;;12.50;99.90;;;;;;25404682;23;20382;-75
2022/03/31 07:11:35;;;;;;;0.20;0.10;;;12.40;99.90;;;;;;25409357;23;20167;-68
2022/03/31 07:21:43;;;;;;;0.20;0.10;;;12.70;99.90;;;;;;25378098;23;20251;-68
2022/03/31 07:31:48;;;;;;;0.20;0.00;;;12.80;99.90;;;;;;25380343;23;20175;-68
2022/03/31 07:41:52;;;;;;;0.20;0.10;;;13.10;99.90;;;;;;25379855;23;20192;-67
2022/03/31 07:51:57;;;;;;;0.20;0.10;;;13.30;99.90;;;;;;25406848;23;20199;-68
2022/03/31 08:02:01;;;;;;;0.20;0.10;;;13.20;99.90;;;;;;25403444;23;20188;-69
2022/03/31 08:12:08;;;;;;;0.20;0.00;;;13.60;99.90;;;;;;25405345;23;20471;-68
2022/03/31 08:22:12;;;;;;;0.20;0.00;;;13.80;99.90;;;;;;25374798;23;20210;-75
2022/03/31 08:32:17;;;;;;;0.20;0.00;;;13.80;99.90;;;;;;25404693;23;20171;-77
2022/03/31 08:42:21;;;;;;;0.20;0.00;;;13.60;99.90;;;;;;25390027;23;20191;-64
2022/03/31 08:52:27;;;;;;;0.20;0.00;;;13.60;99.90;;;;;;25395944;23;20203;-63
2022/03/31 09:02:31;;;;;;;0.20;0.10;;;13.50;99.90;;;;;;25394817;23;20256;-64
2022/03/31 09:12:39;;;;;;;0.20;0.10;;;13.10;99.90;;;;;;25374136;23;20270;-63
2022/03/31 09:23:03;;;;;;;0.20;0.10;;;13.00;99.90;;;;;;25371418;23;20230;-63
2022/03/31 09:33:09;;;;;;;0.20;0.10;;;13.00;99.90;;;;;;25376953;23;20164;-66
2022/03/31 09:43:13;;;;;;;0.20;0.00;;;13.00;99.90;;;;;;25349664;23;20226;-64
2022/03/31 09:53:19;;;;;;;0.20;0.00;;;13.00;99.90;;;;;;25374043;23;20203;-65
2022/03/31 10:03:24;;;;;;;0.20;0.10;;;13.20;99.90;;;;;;25374310;23;20194;-65
2022/03/31 10:13:36;;;;;;;0.20;0.00;;;13.10;99.90;;;;;;25399905;23;20255;-63
2022/03/31 10:34:15;;;;;;;0.20;0.10;;;13.40;99.90;;;;;;25398812;23;20206;-64
2022/03/31 10:44:21;;;;;;;0.20;0.00;;;13.60;99.90;;;;;;25407739;23;20211;-63
2022/03/31 10:54:28;;;;;;;0.20;0.10;;;13.60;99.90;;;;;;25407371;23;20230;-63
2022/03/31 11:04:42;;;;;;;0.20;0.20;;;13.80;99.90;;;;;;25406977;23;20226;-64
2022/03/31 11:14:57;;;;;;;0.20;0.00;;;13.90;99.90;;;;;;25405706;23;20191;-64
2022/03/31 11:25:10;;;;;;;0.33;0.30;;;14.60;99.90;;;;;;25381368;23;20259;-63
2022/03/31 11:35:18;;;;;;;0.20;0.10;;;16.30;99.90;;;;;;25384180;23;20187;-63
2022/03/31 11:45:31;;;;;;;0.20;0.00;;;15.90;99.90;;;;;;25408188;23;20203;-64
2022/03/31 11:55:36;;;;;;;0.20;0.10;;;16.10;99.90;;;;;;25409113;23;20206;-63
2022/03/31 12:05:40;;;;;;;0.20;0.00;;;15.70;99.90;;;;;;25409919;23;20198;-66
2022/03/31 12:15:45;;;;;;;0.20;0.00;;;17.10;99.90;;;;;;25407702;23;20187;-63
2022/03/31 12:25:50;;;;;;;0.47;0.47;;;17.20;99.90;;;;;;25401142;23;20195;-63
2022/03/31 12:36:02;;;;;;;0.20;0.10;;;18.70;99.90;;;;;;25389313;23;20183;-64
2022/03/31 14:34:56;;;;;;;0.20;0.10;;;16.20;99.90;;;;;;25395016;23;20661;-63
2022/03/31 14:45:00;;;;;;;0.37;0.37;;;16.10;99.90;;;;;;25390098;23;20187;-63
2022/03/31 14:55:06;;;;;;;0.20;0.10;;;16.20;99.90;;;;;;25416449;23;20171;-62
2022/03/31 15:05:11;;;;;;;0.20;0.10;;;16.30;99.90;;;;;;25390793;23;20183;-62
2022/03/31 15:15:16;;;;;;;0.20;0.10;;;15.30;99.90;;;;;;25392438;23;20195;-64
2022/03/31 15:25:20;;;;;;;0.20;0.10;;;15.10;99.90;;;;;;25392873;23;20199;-63
2022/03/31 15:35:26;;;;;;;0.20;0.10;;;15.10;99.90;;;;;;25395666;23;20170;-65
2022/03/31 15:45:29;;;;;;;0.20;0.10;;;14.80;99.90;;;;;;25374293;23;20196;-64
2022/03/31 15:55:35;;;;;;;0.20;0.10;;;14.50;99.90;;;;;;25396846;23;20183;-65
2022/03/31 16:05:39;;;;;;;0.20;0.10;;;14.50;99.90;;;;;;25398063;23;20188;-61
2022/03/31 16:15:46;;;;;;;0.20;0.10;;;14.50;99.90;;;;;;25395719;23;20183;-63
2022/03/31 16:25:50;;;;;;;0.20;0.10;;;14.30;99.90;;;;;;25391930;23;20211;-65
2022/03/31 16:35:55;;;;;;;3.07;0.97;;;13.90;99.90;;;;;;25395622;23;20172;-65
2022/03/31 16:46:00;;;;;;;0.20;0.10;;;11.80;99.90;;;;;;25374452;23;20511;-65
2022/03/31 16:56:06;;;;;;;0.20;0.10;;;11.70;99.90;;;;;;25396105;23;20171;-63
2022/03/31 17:06:14;;;;;;;0.20;0.10;;;11.00;99.90;;;;;;25371645;23;20219;-64
2022/03/31 17:16:20;;;;;;;0.20;0.10;;;11.40;99.90;;;;;;25397382;23;20191;-64
2022/03/31 17:26:24;;;;;;;0.20;0.10;;;11.80;99.90;;;;;;25397740;23;20268;-64
2022/03/31 17:36:29;;;;;;;0.20;0.10;;;11.70;99.90;;;;;;25391340;23;20198;-66
2022/03/31 17:46:32;;;;;;;0.20;0.10;;;11.60;99.90;;;;;;25369682;23;20230;-64
2022/03/31 17:56:39;;;;;;;0.20;0.10;;;11.70;99.90;;;;;;25396586;23;20178;-65
2022/03/31 18:06:43;;;;;;;0.20;0.10;;;11.60;99.90;;;;;;25371004;23;20191;-64
2022/03/31 18:16:49;;;;;;;0.20;0.10;;;11.60;99.90;;;;;;25398970;23;20226;-65
2022/03/31 18:26:53;;;;;;;0.20;0.10;;;11.50;99.90;;;;;;25374586;23;20234;-64
2022/03/31 18:36:59;;;;;;;0.20;0.10;;;11.30;99.90;;;;;;25400791;23;20179;-64
2022/03/31 18:47:04;;;;;;;0.20;0.10;;;11.30;99.90;;;;;;25400300;23;20188;-65
2022/03/31 18:57:09;;;;;;;0.20;0.20;;;11.30;99.90;;;;;;25351965;23;20172;-65
2022/03/31 19:07:15;;;;;;;0.20;0.10;;;11.10;99.90;;;;;;25406771;23;20199;-64
2022/03/31 19:17:20;;;;;;;0.20;0.10;;;11.20;99.90;;;;;;25405605;23;20215;-64
2022/03/31 19:27:24;;;;;;;0.20;0.00;;;11.00;99.90;;;;;;25381811;23;20446;-65
2022/03/31 19:37:30;;;;;;;0.20;0.10;;;10.90;99.90;;;;;;25405397;23;20167;-65
2022/03/31 19:47:35;;;;;;;0.20;0.10;;;10.80;99.90;;;;;;25409231;23;20198;-66
2022/03/31 19:57:40;;;;;;;0.20;0.10;;;11.00;99.90;;;;;;25408839;23;20172;-65
2022/03/31 20:07:49;;;;;;;0.20;0.10;;;10.90;99.90;;;;;;25408411;23;20207;-65
2022/03/31 20:17:54;;;;;;;0.20;0.00;;;11.00;99.90;;;;;;25407432;23;20230;-65
2022/03/31 20:27:58;;;;;;;0.20;0.10;;;10.70;99.90;;;;;;25407032;23;20210;-65
2022/03/31 20:38:04;;;;;;;0.20;0.10;;;10.60;99.90;;;;;;25408415;23;20176;-66
2022/03/31 20:48:10;;;;;;;0.20;0.10;;;10.60;99.90;;;;;;25406922;23;20195;-66
2022/03/31 20:58:17;;;;;;;0.20;0.10;;;10.80;99.90;;;;;;25407783;23;20160;-65
2022/03/31 21:08:21;;;;;;;0.20;0.10;;;11.00;99.90;;;;;;25379384;23;20200;-64
2022/03/31 21:18:26;;;;;;;0.20;0.10;;;11.20;99.90;;;;;;25407540;23;20188;-65
2022/03/31 21:28:30;;;;;;;0.20;0.10;;;11.20;99.90;;;;;;25380557;23;20215;-64
2022/03/31 21:38:36;;;;;;;0.20;0.00;;;11.00;99.90;;;;;;25407072;23;20168;-69
2022/03/31 21:48:40;;;;;;;0.20;0.10;;;10.90;99.90;;;;;;25379789;23;20192;-70
2022/03/31 21:58:45;;;;;;;0.20;0.10;;;10.70;99.90;;;;;;25399191;23;20172;-76
2022/03/31 22:19:12;;;;;;;0.20;0.10;;;10.30;99.90;;;;;;25406861;23;20206;-74
2022/03/31 22:29:17;;;;;;;0.20;0.10;;;10.00;99.90;;;;;;25412512;23;20270;-75
2022/03/31 22:39:23;;;;;;;0.20;0.00;;;9.90;99.90;;;;;;25412186;23;20227;-76
2022/03/31 22:49:27;;;;;;;0.20;0.00;;;9.70;99.90;;;;;;25412435;23;20198;-73
2022/03/31 22:59:32;;;;;;;0.20;0.07;;;9.70;99.90;;;;;;25428695;23;20162;-76
2022/03/31 23:09:36;;;;;;;0.20;0.07;;;9.60;99.90;;;;;;25394139;23;20198;-70
2022/03/31 23:19:42;;;;;;;0.20;0.00;;;9.60;99.90;;;;;;25386667;23;20201;-69
2022/03/31 23:29:46;;;;;;;0.20;0.10;;;9.80;99.90;;;;;;25413527;23;20214;-69
2022/03/31 23:39:51;;;;;;;0.20;0.10;;;9.80;99.90;;;;;;25413065;23;20176;-69
2022/03/31 23:49:55;;;;;;;0.20;0.10;;;9.90;99.90;;;;;;25411553;23;20251;-69
